sensor_id;sensor_type;location;lat;lon;timestamp;P1;durP1;ratioP1;P2;durP2;ratioP2
74383;SDS011;62824;52.994;-3.936;2023-07-31T00:00:48;48.42;;;5.13;;
74383;SDS011;62824;52.994;-3.936;2023-07-31T00:03:14;7.20;;;1.77;;
74383;SDS011;62824;52.994;-3.936;2023-07-31T00:05:40;10.40;;;1.83;;
74383;SDS011;62824;52.994;-3.936;2023-07-31T00:08:06;5.35;;;1.40;;
74383;SDS011;62824;52.994;-3.936;2023-07-31T00:10:31;13.70;;;1.77;;
74383;SDS011;62824;52.994;-3.936;2023-07-31T00:12:58;5.30;;;1.40;;
74383;SDS011;62824;52.994;-3.936;2023-07-31T00:15:24;21.63;;;2.58;;
74383;SDS011;62824;52.994;-3.936;2023-07-31T00:17:50;16.35;;;2.28;;
74383;SDS011;62824;52.994;-3.936;2023-07-31T00:20:16;37.40;;;3.30;;
74383;SDS011;62824;52.994;-3.936;2023-07-31T00:22:41;67.95;;;5.80;;
74383;SDS011;62824;52.994;-3.936;2023-07-31T00:25:07;49.05;;;4.35;;
74383;SDS011;62824;52.994;-3.936;2023-07-31T00:27:33;12.68;;;1.77;;
74383;SDS011;62824;52.994;-3.936;2023-07-31T00:30:02;16.08;;;2.05;;
74383;SDS011;62824;52.994;-3.936;2023-07-31T00:32:28;14.60;;;1.65;;
74383;SDS011;62824;52.994;-3.936;2023-07-31T00:34:54;5.97;;;2.30;;
74383;SDS011;62824;52.994;-3.936;2023-07-31T00:37:20;20.08;;;3.92;;
74383;SDS011;62824;52.994;-3.936;2023-07-31T00:39:46;5.60;;;1.00;;
74383;SDS011;62824;52.994;-3.936;2023-07-31T00:42:11;3.88;;;1.00;;
74383;SDS011;62824;52.994;-3.936;2023-07-31T00:44:37;4.50;;;1.25;;
74383;SDS011;62824;52.994;-3.936;2023-07-31T00:47:03;5.43;;;1.23;;
74383;SDS011;62824;52.994;-3.936;2023-07-31T00:49:29;4.25;;;0.88;;
74383;SDS011;62824;52.994;-3.936;2023-07-31T00:51:55;17.23;;;2.03;;
74383;SDS011;62824;52.994;-3.936;2023-07-31T00:54:22;9.23;;;1.65;;
74383;SDS011;62824;52.994;-3.936;2023-07-31T00:56:48;36.42;;;2.75;;
74383;SDS011;62824;52.994;-3.936;2023-07-31T00:59:16;6.07;;;1.20;;
74383;SDS011;62824;52.994;-3.936;2023-07-31T01:01:43;11.18;;;1.30;;
74383;SDS011;62824;52.994;-3.936;2023-07-31T01:04:10;17.83;;;2.15;;
74383;SDS011;62824;52.994;-3.936;2023-07-31T01:07:01;11.48;;;1.65;;
74383;SDS011;62824;52.994;-3.936;2023-07-31T01:09:43;40.05;;;3.47;;
74383;SDS011;62824;52.994;-3.936;2023-07-31T01:12:18;17.98;;;2.22;;
74383;SDS011;62824;52.994;-3.936;2023-07-31T01:15:19;24.35;;;2.58;;
74383;SDS011;62824;52.994;-3.936;2023-07-31T01:17:43;2.45;;;1.20;;
74383;SDS011;62824;52.994;-3.936;2023-07-31T01:20:22;16.85;;;2.53;;
74383;SDS011;62824;52.994;-3.936;2023-07-31T01:28:23;10.43;;;1.60;;
74383;SDS011;62824;52.994;-3.936;2023-07-31T01:30:54;25.83;;;2.63;;
74383;SDS011;62824;52.994;-3.936;2023-07-31T01:33:23;68.63;;;5.38;;
74383;SDS011;62824;52.994;-3.936;2023-07-31T01:35:49;41.33;;;3.50;;
74383;SDS011;62824;52.994;-3.936;2023-07-31T01:38:15;80.38;;;5.53;;
74383;SDS011;62824;52.994;-3.936;2023-07-31T01:40:46;109.30;;;9.27;;
74383;SDS011;62824;52.994;-3.936;2023-07-31T01:43:17;119.22;;;7.97;;
74383;SDS011;62824;52.994;-3.936;2023-07-31T01:45:43;76.25;;;6.05;;
74383;SDS011;62824;52.994;-3.936;2023-07-31T01:48:09;75.60;;;5.97;;
74383;SDS011;62824;52.994;-3.936;2023-07-31T01:50:35;52.60;;;4.22;;
74383;SDS011;62824;52.994;-3.936;2023-07-31T01:53:00;55.75;;;4.70;;
74383;SDS011;62824;52.994;-3.936;2023-07-31T01:55:26;90.60;;;6.80;;
74383;SDS011;62824;52.994;-3.936;2023-07-31T01:57:52;124.47;;;8.80;;
74383;SDS011;62824;52.994;-3.936;2023-07-31T02:00:18;175.80;;;12.65;;
74383;SDS011;62824;52.994;-3.936;2023-07-31T02:02:44;105.85;;;8.07;;
74383;SDS011;62824;52.994;-3.936;2023-07-31T02:05:10;137.60;;;8.10;;
74383;SDS011;62824;52.994;-3.936;2023-07-31T02:07:36;141.00;;;8.57;;
74383;SDS011;62824;52.994;-3.936;2023-07-31T02:10:02;170.52;;;10.88;;
74383;SDS011;62824;52.994;-3.936;2023-07-31T02:12:28;164.52;;;10.55;;
74383;SDS011;62824;52.994;-3.936;2023-07-31T02:14:57;142.52;;;11.10;;
74383;SDS011;62824;52.994;-3.936;2023-07-31T02:17:23;125.05;;;9.57;;
74383;SDS011;62824;52.994;-3.936;2023-07-31T02:19:48;196.23;;;11.48;;
74383;SDS011;62824;52.994;-3.936;2023-07-31T02:22:14;128.38;;;10.80;;
74383;SDS011;62824;52.994;-3.936;2023-07-31T02:24:40;218.23;;;16.33;;
74383;SDS011;62824;52.994;-3.936;2023-07-31T02:27:06;141.30;;;10.70;;
74383;SDS011;62824;52.994;-3.936;2023-07-31T02:29:32;119.63;;;9.18;;
74383;SDS011;62824;52.994;-3.936;2023-07-31T02:31:57;222.23;;;14.52;;
74383;SDS011;62824;52.994;-3.936;2023-07-31T02:34:23;173.25;;;12.43;;
74383;SDS011;62824;52.994;-3.936;2023-07-31T02:36:49;60.17;;;6.50;;
74383;SDS011;62824;52.994;-3.936;2023-07-31T02:39:15;112.35;;;10.15;;
74383;SDS011;62824;52.994;-3.936;2023-07-31T02:41:40;42.17;;;4.60;;
74383;SDS011;62824;52.994;-3.936;2023-07-31T02:44:06;16.98;;;3.97;;
74383;SDS011;62824;52.994;-3.936;2023-07-31T02:46:32;9.93;;;3.60;;
74383;SDS011;62824;52.994;-3.936;2023-07-31T02:48:58;36.92;;;4.95;;
74383;SDS011;62824;52.994;-3.936;2023-07-31T02:51:23;207.15;;;16.25;;
74383;SDS011;62824;52.994;-3.936;2023-07-31T02:53:49;235.07;;;20.27;;
74383;SDS011;62824;52.994;-3.936;2023-07-31T02:56:15;306.08;;;23.52;;
74383;SDS011;62824;52.994;-3.936;2023-07-31T02:58:41;202.80;;;15.02;;
74383;SDS011;62824;52.994;-3.936;2023-07-31T03:01:07;118.70;;;11.00;;
74383;SDS011;62824;52.994;-3.936;2023-07-31T03:03:32;62.30;;;7.65;;
74383;SDS011;62824;52.994;-3.936;2023-07-31T03:05:58;43.67;;;7.45;;
74383;SDS011;62824;52.994;-3.936;2023-07-31T03:08:24;28.50;;;5.47;;
74383;SDS011;62824;52.994;-3.936;2023-07-31T03:10:50;34.15;;;6.15;;
74383;SDS011;62824;52.994;-3.936;2023-07-31T03:13:16;19.38;;;5.28;;
74383;SDS011;62824;52.994;-3.936;2023-07-31T03:15:42;19.38;;;5.82;;
74383;SDS011;62824;52.994;-3.936;2023-07-31T03:18:08;17.83;;;5.30;;
74383;SDS011;62824;52.994;-3.936;2023-07-31T03:20:34;22.40;;;5.97;;
74383;SDS011;62824;52.994;-3.936;2023-07-31T03:23:00;13.25;;;4.43;;
74383;SDS011;62824;52.994;-3.936;2023-07-31T03:25:26;18.48;;;5.75;;
74383;SDS011;62824;52.994;-3.936;2023-07-31T03:27:51;16.33;;;5.57;;
74383;SDS011;62824;52.994;-3.936;2023-07-31T03:30:17;14.10;;;6.00;;
74383;SDS011;62824;52.994;-3.936;2023-07-31T03:32:43;14.23;;;4.45;;
74383;SDS011;62824;52.994;-3.936;2023-07-31T03:35:09;13.75;;;5.32;;
74383;SDS011;62824;52.994;-3.936;2023-07-31T03:37:34;14.07;;;5.05;;
74383;SDS011;62824;52.994;-3.936;2023-07-31T03:40:00;21.80;;;5.50;;
74383;SDS011;62824;52.994;-3.936;2023-07-31T03:42:26;19.80;;;5.50;;
74383;SDS011;62824;52.994;-3.936;2023-07-31T03:44:52;11.27;;;4.50;;
74383;SDS011;62824;52.994;-3.936;2023-07-31T03:47:18;14.40;;;4.32;;
74383;SDS011;62824;52.994;-3.936;2023-07-31T03:49:43;16.83;;;4.80;;
74383;SDS011;62824;52.994;-3.936;2023-07-31T03:52:09;15.55;;;5.20;;
74383;SDS011;62824;52.994;-3.936;2023-07-31T03:54:35;16.52;;;4.95;;
74383;SDS011;62824;52.994;-3.936;2023-07-31T03:57:01;13.30;;;4.85;;
74383;SDS011;62824;52.994;-3.936;2023-07-31T03:59:26;12.23;;;4.97;;
74383;SDS011;62824;52.994;-3.936;2023-07-31T04:01:52;17.67;;;5.00;;
74383;SDS011;62824;52.994;-3.936;2023-07-31T04:04:18;11.95;;;5.00;;
74383;SDS011;62824;52.994;-3.936;2023-07-31T04:06:44;13.45;;;4.25;;
74383;SDS011;62824;52.994;-3.936;2023-07-31T04:09:09;13.82;;;5.00;;
74383;SDS011;62824;52.994;-3.936;2023-07-31T04:11:35;18.98;;;4.80;;
74383;SDS011;62824;52.994;-3.936;2023-07-31T04:14:01;12.13;;;4.15;;
74383;SDS011;62824;52.994;-3.936;2023-07-31T04:16:27;14.35;;;4.80;;
74383;SDS011;62824;52.994;-3.936;2023-07-31T04:18:52;15.70;;;4.65;;
74383;SDS011;62824;52.994;-3.936;2023-07-31T04:21:18;17.50;;;4.75;;
74383;SDS011;62824;52.994;-3.936;2023-07-31T04:23:44;19.13;;;6.10;;
74383;SDS011;62824;52.994;-3.936;2023-07-31T04:26:10;12.73;;;4.70;;
74383;SDS011;62824;52.994;-3.936;2023-07-31T04:28:35;15.45;;;4.55;;
74383;SDS011;62824;52.994;-3.936;2023-07-31T04:31:01;16.35;;;5.57;;
74383;SDS011;62824;52.994;-3.936;2023-07-31T04:33:27;17.80;;;5.32;;
74383;SDS011;62824;52.994;-3.936;2023-07-31T04:35:53;11.65;;;4.65;;
74383;SDS011;62824;52.994;-3.936;2023-07-31T04:38:19;12.52;;;4.75;;
74383;SDS011;62824;52.994;-3.936;2023-07-31T04:40:46;15.40;;;4.47;;
74383;SDS011;62824;52.994;-3.936;2023-07-31T04:43:13;17.77;;;5.05;;
74383;SDS011;62824;52.994;-3.936;2023-07-31T04:45:39;14.85;;;5.40;;
74383;SDS011;62824;52.994;-3.936;2023-07-31T04:48:04;16.08;;;4.18;;
74383;SDS011;62824;52.994;-3.936;2023-07-31T04:50:30;12.07;;;4.50;;
74383;SDS011;62824;52.994;-3.936;2023-07-31T04:52:56;12.30;;;4.25;;
74383;SDS011;62824;52.994;-3.936;2023-07-31T04:55:22;14.20;;;4.07;;
74383;SDS011;62824;52.994;-3.936;2023-07-31T04:57:47;10.23;;;3.85;;
74383;SDS011;62824;52.994;-3.936;2023-07-31T05:00:13;9.23;;;3.20;;
74383;SDS011;62824;52.994;-3.936;2023-07-31T05:02:39;10.43;;;3.58;;
74383;SDS011;62824;52.994;-3.936;2023-07-31T05:05:05;8.00;;;3.05;;
74383;SDS011;62824;52.994;-3.936;2023-07-31T05:07:31;12.25;;;3.65;;
74383;SDS011;62824;52.994;-3.936;2023-07-31T05:09:57;11.02;;;2.92;;
74383;SDS011;62824;52.994;-3.936;2023-07-31T05:12:23;12.48;;;3.15;;
74383;SDS011;62824;52.994;-3.936;2023-07-31T05:14:48;11.95;;;3.65;;
74383;SDS011;62824;52.994;-3.936;2023-07-31T05:17:14;13.93;;;4.82;;
74383;SDS011;62824;52.994;-3.936;2023-07-31T05:19:40;13.18;;;3.90;;
74383;SDS011;62824;52.994;-3.936;2023-07-31T05:22:06;12.20;;;3.63;;
74383;SDS011;62824;52.994;-3.936;2023-07-31T05:24:31;13.30;;;3.92;;
74383;SDS011;62824;52.994;-3.936;2023-07-31T05:26:58;18.55;;;4.78;;
74383;SDS011;62824;52.994;-3.936;2023-07-31T05:29:24;9.98;;;3.60;;
74383;SDS011;62824;52.994;-3.936;2023-07-31T05:31:50;9.95;;;3.33;;
74383;SDS011;62824;52.994;-3.936;2023-07-31T05:34:16;11.95;;;4.18;;
74383;SDS011;62824;52.994;-3.936;2023-07-31T05:36:41;12.02;;;3.95;;
74383;SDS011;62824;52.994;-3.936;2023-07-31T05:39:07;8.48;;;2.97;;
74383;SDS011;62824;52.994;-3.936;2023-07-31T05:41:33;11.52;;;4.00;;
74383;SDS011;62824;52.994;-3.936;2023-07-31T05:44:00;10.60;;;3.92;;
74383;SDS011;62824;52.994;-3.936;2023-07-31T05:46:26;12.13;;;3.65;;
74383;SDS011;62824;52.994;-3.936;2023-07-31T05:48:52;9.98;;;3.15;;
74383;SDS011;62824;52.994;-3.936;2023-07-31T05:51:18;7.90;;;2.83;;
74383;SDS011;62824;52.994;-3.936;2023-07-31T05:53:43;8.23;;;3.20;;
74383;SDS011;62824;52.994;-3.936;2023-07-31T05:56:09;8.90;;;3.22;;
74383;SDS011;62824;52.994;-3.936;2023-07-31T05:58:35;12.25;;;3.75;;
74383;SDS011;62824;52.994;-3.936;2023-07-31T06:01:01;11.18;;;3.92;;
74383;SDS011;62824;52.994;-3.936;2023-07-31T06:03:26;5.97;;;2.80;;
74383;SDS011;62824;52.994;-3.936;2023-07-31T06:05:52;9.02;;;3.50;;
74383;SDS011;62824;52.994;-3.936;2023-07-31T06:08:18;12.25;;;3.30;;
74383;SDS011;62824;52.994;-3.936;2023-07-31T06:10:44;11.30;;;3.63;;
74383;SDS011;62824;52.994;-3.936;2023-07-31T06:13:09;12.48;;;3.55;;
74383;SDS011;62824;52.994;-3.936;2023-07-31T06:15:35;10.98;;;3.67;;
74383;SDS011;62824;52.994;-3.936;2023-07-31T06:18:01;12.23;;;3.28;;
74383;SDS011;62824;52.994;-3.936;2023-07-31T06:20:28;7.45;;;2.85;;
74383;SDS011;62824;52.994;-3.936;2023-07-31T06:22:54;11.10;;;3.20;;
74383;SDS011;62824;52.994;-3.936;2023-07-31T06:25:19;6.47;;;2.75;;
74383;SDS011;62824;52.994;-3.936;2023-07-31T06:27:45;8.02;;;2.67;;
74383;SDS011;62824;52.994;-3.936;2023-07-31T06:30:11;6.30;;;2.97;;
74383;SDS011;62824;52.994;-3.936;2023-07-31T06:32:37;8.77;;;3.58;;
74383;SDS011;62824;52.994;-3.936;2023-07-31T06:35:03;9.18;;;3.20;;
74383;SDS011;62824;52.994;-3.936;2023-07-31T06:37:29;7.15;;;3.13;;
74383;SDS011;62824;52.994;-3.936;2023-07-31T06:39:55;8.93;;;3.60;;
74383;SDS011;62824;52.994;-3.936;2023-07-31T06:42:21;8.68;;;3.00;;
74383;SDS011;62824;52.994;-3.936;2023-07-31T06:44:47;10.93;;;3.40;;
74383;SDS011;62824;52.994;-3.936;2023-07-31T06:47:13;11.07;;;3.42;;
74383;SDS011;62824;52.994;-3.936;2023-07-31T06:49:38;8.63;;;3.58;;
74383;SDS011;62824;52.994;-3.936;2023-07-31T06:52:04;9.38;;;3.10;;
74383;SDS011;62824;52.994;-3.936;2023-07-31T06:54:30;11.60;;;4.10;;
74383;SDS011;62824;52.994;-3.936;2023-07-31T06:56:56;11.18;;;4.57;;
74383;SDS011;62824;52.994;-3.936;2023-07-31T06:59:23;10.68;;;3.65;;
74383;SDS011;62824;52.994;-3.936;2023-07-31T07:01:48;11.80;;;3.55;;
74383;SDS011;62824;52.994;-3.936;2023-07-31T07:04:14;13.80;;;3.67;;
74383;SDS011;62824;52.994;-3.936;2023-07-31T07:06:40;7.45;;;3.33;;
74383;SDS011;62824;52.994;-3.936;2023-07-31T07:09:06;10.00;;;3.60;;
74383;SDS011;62824;52.994;-3.936;2023-07-31T07:11:33;12.35;;;3.03;;
74383;SDS011;62824;52.994;-3.936;2023-07-31T07:13:59;10.95;;;3.92;;
74383;SDS011;62824;52.994;-3.936;2023-07-31T07:16:25;11.32;;;3.72;;
74383;SDS011;62824;52.994;-3.936;2023-07-31T07:18:53;9.18;;;3.80;;
74383;SDS011;62824;52.994;-3.936;2023-07-31T07:21:19;11.10;;;3.42;;
74383;SDS011;62824;52.994;-3.936;2023-07-31T07:23:45;11.02;;;3.42;;
74383;SDS011;62824;52.994;-3.936;2023-07-31T07:26:11;10.40;;;2.97;;
74383;SDS011;62824;52.994;-3.936;2023-07-31T07:28:36;9.32;;;3.28;;
74383;SDS011;62824;52.994;-3.936;2023-07-31T07:31:02;7.57;;;2.78;;
74383;SDS011;62824;52.994;-3.936;2023-07-31T07:33:28;9.18;;;3.10;;
74383;SDS011;62824;52.994;-3.936;2023-07-31T07:35:54;11.57;;;3.63;;
74383;SDS011;62824;52.994;-3.936;2023-07-31T07:38:20;8.23;;;2.97;;
74383;SDS011;62824;52.994;-3.936;2023-07-31T07:40:46;13.32;;;3.20;;
74383;SDS011;62824;52.994;-3.936;2023-07-31T07:43:15;9.45;;;3.35;;
74383;SDS011;62824;52.994;-3.936;2023-07-31T07:45:41;14.35;;;3.45;;
74383;SDS011;62824;52.994;-3.936;2023-07-31T07:48:07;8.82;;;3.15;;
74383;SDS011;62824;52.994;-3.936;2023-07-31T07:50:33;8.00;;;3.45;;
74383;SDS011;62824;52.994;-3.936;2023-07-31T07:52:58;11.32;;;3.63;;
74383;SDS011;62824;52.994;-3.936;2023-07-31T07:55:24;10.23;;;3.50;;
74383;SDS011;62824;52.994;-3.936;2023-07-31T07:57:50;9.52;;;3.20;;
74383;SDS011;62824;52.994;-3.936;2023-07-31T08:00:16;9.70;;;3.42;;
74383;SDS011;62824;52.994;-3.936;2023-07-31T08:02:42;13.82;;;3.97;;
74383;SDS011;62824;52.994;-3.936;2023-07-31T08:05:08;9.57;;;3.20;;
74383;SDS011;62824;52.994;-3.936;2023-07-31T08:07:34;9.80;;;3.40;;
74383;SDS011;62824;52.994;-3.936;2023-07-31T08:10:00;11.38;;;2.88;;
74383;SDS011;62824;52.994;-3.936;2023-07-31T08:12:26;8.82;;;3.10;;
74383;SDS011;62824;52.994;-3.936;2023-07-31T08:14:52;5.00;;;2.53;;
74383;SDS011;62824;52.994;-3.936;2023-07-31T08:17:18;8.40;;;2.92;;
74383;SDS011;62824;52.994;-3.936;2023-07-31T08:19:43;11.48;;;3.60;;
74383;SDS011;62824;52.994;-3.936;2023-07-31T08:22:10;10.23;;;3.25;;
74383;SDS011;62824;52.994;-3.936;2023-07-31T08:24:35;6.80;;;2.63;;
74383;SDS011;62824;52.994;-3.936;2023-07-31T08:27:01;8.73;;;2.97;;
74383;SDS011;62824;52.994;-3.936;2023-07-31T08:29:27;10.32;;;2.85;;
74383;SDS011;62824;52.994;-3.936;2023-07-31T08:31:53;8.50;;;3.47;;
74383;SDS011;62824;52.994;-3.936;2023-07-31T08:34:19;8.55;;;2.95;;
74383;SDS011;62824;52.994;-3.936;2023-07-31T08:36:45;7.55;;;3.00;;
74383;SDS011;62824;52.994;-3.936;2023-07-31T08:39:10;8.40;;;2.88;;
74383;SDS011;62824;52.994;-3.936;2023-07-31T08:41:39;9.77;;;3.20;;
74383;SDS011;62824;52.994;-3.936;2023-07-31T08:44:06;9.98;;;2.65;;
74383;SDS011;62824;52.994;-3.936;2023-07-31T08:46:32;10.18;;;3.35;;
74383;SDS011;62824;52.994;-3.936;2023-07-31T08:48:59;10.05;;;3.80;;
74383;SDS011;62824;52.994;-3.936;2023-07-31T08:51:25;10.13;;;4.15;;
74383;SDS011;62824;52.994;-3.936;2023-07-31T08:53:52;8.15;;;2.90;;
74383;SDS011;62824;52.994;-3.936;2023-07-31T08:56:18;10.75;;;2.70;;
74383;SDS011;62824;52.994;-3.936;2023-07-31T08:58:45;8.32;;;3.60;;
74383;SDS011;62824;52.994;-3.936;2023-07-31T09:01:12;8.57;;;2.90;;
74383;SDS011;62824;52.994;-3.936;2023-07-31T09:03:39;11.45;;;3.30;;
74383;SDS011;62824;52.994;-3.936;2023-07-31T09:06:07;11.38;;;3.30;;
74383;SDS011;62824;52.994;-3.936;2023-07-31T09:08:34;7.32;;;2.90;;
74383;SDS011;62824;52.994;-3.936;2023-07-31T09:11:02;7.90;;;2.78;;
74383;SDS011;62824;52.994;-3.936;2023-07-31T09:13:30;7.93;;;3.10;;
74383;SDS011;62824;52.994;-3.936;2023-07-31T09:15:56;8.15;;;3.08;;
74383;SDS011;62824;52.994;-3.936;2023-07-31T09:18:22;7.53;;;3.50;;
74383;SDS011;62824;52.994;-3.936;2023-07-31T09:21:04;11.35;;;3.33;;
74383;SDS011;62824;52.994;-3.936;2023-07-31T09:23:46;13.05;;;3.58;;
74383;SDS011;62824;52.994;-3.936;2023-07-31T09:29:01;18.45;;;3.92;;
74383;SDS011;62824;52.994;-3.936;2023-07-31T09:34:04;12.05;;;4.28;;
74383;SDS011;62824;52.994;-3.936;2023-07-31T09:36:30;14.85;;;5.55;;
74383;SDS011;62824;52.994;-3.936;2023-07-31T09:39:01;14.15;;;4.10;;
74383;SDS011;62824;52.994;-3.936;2023-07-31T09:41:28;9.77;;;3.78;;
74383;SDS011;62824;52.994;-3.936;2023-07-31T09:43:55;9.45;;;3.40;;
74383;SDS011;62824;52.994;-3.936;2023-07-31T09:46:21;13.35;;;3.53;;
74383;SDS011;62824;52.994;-3.936;2023-07-31T09:48:47;8.50;;;3.30;;
74383;SDS011;62824;52.994;-3.936;2023-07-31T09:51:13;8.07;;;3.45;;
74383;SDS011;62824;52.994;-3.936;2023-07-31T09:53:39;9.75;;;3.28;;
74383;SDS011;62824;52.994;-3.936;2023-07-31T09:56:05;10.45;;;3.60;;
74383;SDS011;62824;52.994;-3.936;2023-07-31T09:58:31;13.10;;;2.88;;
74383;SDS011;62824;52.994;-3.936;2023-07-31T10:01:01;11.63;;;2.90;;
74383;SDS011;62824;52.994;-3.936;2023-07-31T10:03:37;6.93;;;2.40;;
74383;SDS011;62824;52.994;-3.936;2023-07-31T10:06:07;10.38;;;3.20;;
74383;SDS011;62824;52.994;-3.936;2023-07-31T10:08:35;10.55;;;3.15;;
74383;SDS011;62824;52.994;-3.936;2023-07-31T10:11:02;8.35;;;3.00;;
74383;SDS011;62824;52.994;-3.936;2023-07-31T10:13:30;11.48;;;3.13;;
74383;SDS011;62824;52.994;-3.936;2023-07-31T10:15:59;8.48;;;2.92;;
74383;SDS011;62824;52.994;-3.936;2023-07-31T10:18:26;11.77;;;3.28;;
74383;SDS011;62824;52.994;-3.936;2023-07-31T10:20:54;15.25;;;3.45;;
74383;SDS011;62824;52.994;-3.936;2023-07-31T10:23:21;9.02;;;3.42;;
74383;SDS011;62824;52.994;-3.936;2023-07-31T10:25:49;12.80;;;3.13;;
74383;SDS011;62824;52.994;-3.936;2023-07-31T10:28:16;9.32;;;3.03;;
74383;SDS011;62824;52.994;-3.936;2023-07-31T10:30:43;7.68;;;2.70;;
74383;SDS011;62824;52.994;-3.936;2023-07-31T10:33:10;5.93;;;2.78;;
74383;SDS011;62824;52.994;-3.936;2023-07-31T10:35:36;9.30;;;3.03;;
74383;SDS011;62824;52.994;-3.936;2023-07-31T10:38:13;10.13;;;2.90;;
74383;SDS011;62824;52.994;-3.936;2023-07-31T10:40:42;6.32;;;2.97;;
74383;SDS011;62824;52.994;-3.936;2023-07-31T10:43:09;8.40;;;3.00;;
74383;SDS011;62824;52.994;-3.936;2023-07-31T10:45:51;9.98;;;3.33;;
74383;SDS011;62824;52.994;-3.936;2023-07-31T10:48:17;10.07;;;2.97;;
74383;SDS011;62824;52.994;-3.936;2023-07-31T10:50:50;11.45;;;3.90;;
74383;SDS011;62824;52.994;-3.936;2023-07-31T10:53:24;10.60;;;3.95;;
74383;SDS011;62824;52.994;-3.936;2023-07-31T10:55:52;5.60;;;2.40;;
74383;SDS011;62824;52.994;-3.936;2023-07-31T10:58:19;8.48;;;2.65;;
74383;SDS011;62824;52.994;-3.936;2023-07-31T11:00:46;7.68;;;3.05;;
74383;SDS011;62824;52.994;-3.936;2023-07-31T11:03:15;6.28;;;3.22;;
74383;SDS011;62824;52.994;-3.936;2023-07-31T11:10:51;9.68;;;4.25;;
74383;SDS011;62824;52.994;-3.936;2023-07-31T11:13:26;12.65;;;5.53;;
74383;SDS011;62824;52.994;-3.936;2023-07-31T11:16:15;9.82;;;7.05;;
74383;SDS011;62824;52.994;-3.936;2023-07-31T11:18:45;7.68;;;3.35;;
74383;SDS011;62824;52.994;-3.936;2023-07-31T11:21:13;8.20;;;3.67;;
74383;SDS011;62824;52.994;-3.936;2023-07-31T11:23:48;6.63;;;3.55;;
74383;SDS011;62824;52.994;-3.936;2023-07-31T11:26:15;10.73;;;3.40;;
74383;SDS011;62824;52.994;-3.936;2023-07-31T11:28:42;8.32;;;3.72;;
74383;SDS011;62824;52.994;-3.936;2023-07-31T11:31:09;8.20;;;3.40;;
74383;SDS011;62824;52.994;-3.936;2023-07-31T11:33:36;6.78;;;2.67;;
74383;SDS011;62824;52.994;-3.936;2023-07-31T11:36:02;5.50;;;3.10;;
74383;SDS011;62824;52.994;-3.936;2023-07-31T11:38:29;7.53;;;2.35;;
74383;SDS011;62824;52.994;-3.936;2023-07-31T11:40:57;6.40;;;1.90;;
74383;SDS011;62824;52.994;-3.936;2023-07-31T11:43:24;5.40;;;1.90;;
74383;SDS011;62824;52.994;-3.936;2023-07-31T11:45:52;4.38;;;1.80;;
74383;SDS011;62824;52.994;-3.936;2023-07-31T11:48:23;10.68;;;2.10;;
74383;SDS011;62824;52.994;-3.936;2023-07-31T11:50:52;4.28;;;2.00;;
74383;SDS011;62824;52.994;-3.936;2023-07-31T11:53:50;6.72;;;2.40;;
74383;SDS011;62824;52.994;-3.936;2023-07-31T11:56:18;6.53;;;1.95;;
74383;SDS011;62824;52.994;-3.936;2023-07-31T11:58:46;3.65;;;1.50;;
74383;SDS011;62824;52.994;-3.936;2023-07-31T12:01:15;3.20;;;1.48;;
74383;SDS011;62824;52.994;-3.936;2023-07-31T12:03:42;4.82;;;1.88;;
74383;SDS011;62824;52.994;-3.936;2023-07-31T12:06:09;5.47;;;2.40;;
74383;SDS011;62824;52.994;-3.936;2023-07-31T12:08:36;7.07;;;2.63;;
74383;SDS011;62824;52.994;-3.936;2023-07-31T12:11:06;12.25;;;2.95;;
74383;SDS011;62824;52.994;-3.936;2023-07-31T12:13:35;5.60;;;3.10;;
74383;SDS011;62824;52.994;-3.936;2023-07-31T12:16:02;4.68;;;2.08;;
74383;SDS011;62824;52.994;-3.936;2023-07-31T12:18:38;5.07;;;2.28;;
74383;SDS011;62824;52.994;-3.936;2023-07-31T12:21:06;4.60;;;2.00;;
74383;SDS011;62824;52.994;-3.936;2023-07-31T12:23:34;4.10;;;2.22;;
74383;SDS011;62824;52.994;-3.936;2023-07-31T12:31:08;9.32;;;3.20;;
74383;SDS011;62824;52.994;-3.936;2023-07-31T12:33:39;5.20;;;2.25;;
74383;SDS011;62824;52.994;-3.936;2023-07-31T12:36:10;8.70;;;2.25;;
74383;SDS011;62824;52.994;-3.936;2023-07-31T12:38:41;4.70;;;2.40;;
74383;SDS011;62824;52.994;-3.936;2023-07-31T12:41:09;5.18;;;1.80;;
74383;SDS011;62824;52.994;-3.936;2023-07-31T12:43:36;5.60;;;1.95;;
74383;SDS011;62824;52.994;-3.936;2023-07-31T12:46:11;4.75;;;2.15;;
74383;SDS011;62824;52.994;-3.936;2023-07-31T12:48:38;4.03;;;1.80;;
74383;SDS011;62824;52.994;-3.936;2023-07-31T12:51:05;4.95;;;2.45;;
74383;SDS011;62824;52.994;-3.936;2023-07-31T12:53:35;5.60;;;1.85;;
74383;SDS011;62824;52.994;-3.936;2023-07-31T12:56:01;5.47;;;1.60;;
74383;SDS011;62824;52.994;-3.936;2023-07-31T12:58:27;3.55;;;1.40;;
74383;SDS011;62824;52.994;-3.936;2023-07-31T13:00:53;3.03;;;1.58;;
74383;SDS011;62824;52.994;-3.936;2023-07-31T13:03:19;3.33;;;1.48;;
74383;SDS011;62824;52.994;-3.936;2023-07-31T13:05:44;3.63;;;1.40;;
74383;SDS011;62824;52.994;-3.936;2023-07-31T13:08:17;4.18;;;1.60;;
74383;SDS011;62824;52.994;-3.936;2023-07-31T13:10:43;2.75;;;1.60;;
74383;SDS011;62824;52.994;-3.936;2023-07-31T13:13:09;4.72;;;1.92;;
74383;SDS011;62824;52.994;-3.936;2023-07-31T13:16:01;6.32;;;2.20;;
74383;SDS011;62824;52.994;-3.936;2023-07-31T13:18:28;4.43;;;2.17;;
74383;SDS011;62824;52.994;-3.936;2023-07-31T13:21:01;3.95;;;1.90;;
74383;SDS011;62824;52.994;-3.936;2023-07-31T13:23:27;6.43;;;2.03;;
74383;SDS011;62824;52.994;-3.936;2023-07-31T13:25:53;5.43;;;2.50;;
74383;SDS011;62824;52.994;-3.936;2023-07-31T13:28:26;8.57;;;2.10;;
74383;SDS011;62824;52.994;-3.936;2023-07-31T13:30:52;8.82;;;2.65;;
74383;SDS011;62824;52.994;-3.936;2023-07-31T13:33:19;4.05;;;1.80;;
74383;SDS011;62824;52.994;-3.936;2023-07-31T13:35:45;4.05;;;1.85;;
74383;SDS011;62824;52.994;-3.936;2023-07-31T13:38:11;4.85;;;1.83;;
74383;SDS011;62824;52.994;-3.936;2023-07-31T13:40:36;6.35;;;2.03;;
74383;SDS011;62824;52.994;-3.936;2023-07-31T13:43:02;11.32;;;2.65;;
74383;SDS011;62824;52.994;-3.936;2023-07-31T13:45:28;5.60;;;2.13;;
74383;SDS011;62824;52.994;-3.936;2023-07-31T13:47:54;4.25;;;1.85;;
74383;SDS011;62824;52.994;-3.936;2023-07-31T13:50:21;4.65;;;2.20;;
74383;SDS011;62824;52.994;-3.936;2023-07-31T13:52:47;5.57;;;1.88;;
74383;SDS011;62824;52.994;-3.936;2023-07-31T13:55:13;4.63;;;1.58;;
74383;SDS011;62824;52.994;-3.936;2023-07-31T13:57:39;3.00;;;1.67;;
74383;SDS011;62824;52.994;-3.936;2023-07-31T14:00:05;4.50;;;1.70;;
74383;SDS011;62824;52.994;-3.936;2023-07-31T14:02:31;5.47;;;1.80;;
74383;SDS011;62824;52.994;-3.936;2023-07-31T14:04:57;5.43;;;1.80;;
74383;SDS011;62824;52.994;-3.936;2023-07-31T14:07:23;4.95;;;1.80;;
74383;SDS011;62824;52.994;-3.936;2023-07-31T14:09:49;5.05;;;1.60;;
74383;SDS011;62824;52.994;-3.936;2023-07-31T14:12:15;5.18;;;1.80;;
74383;SDS011;62824;52.994;-3.936;2023-07-31T14:14:40;4.10;;;1.65;;
74383;SDS011;62824;52.994;-3.936;2023-07-31T14:17:06;3.28;;;1.70;;
74383;SDS011;62824;52.994;-3.936;2023-07-31T14:19:32;7.60;;;2.60;;
74383;SDS011;62824;52.994;-3.936;2023-07-31T14:21:58;8.73;;;4.63;;
74383;SDS011;62824;52.994;-3.936;2023-07-31T14:24:24;16.88;;;7.00;;
74383;SDS011;62824;52.994;-3.936;2023-07-31T14:26:50;9.40;;;4.18;;
74383;SDS011;62824;52.994;-3.936;2023-07-31T14:29:16;12.82;;;5.95;;
74383;SDS011;62824;52.994;-3.936;2023-07-31T14:31:42;12.55;;;4.50;;
74383;SDS011;62824;52.994;-3.936;2023-07-31T14:34:08;10.38;;;3.80;;
74383;SDS011;62824;52.994;-3.936;2023-07-31T14:36:34;13.98;;;4.68;;
74383;SDS011;62824;52.994;-3.936;2023-07-31T14:38:59;12.15;;;4.25;;
74383;SDS011;62824;52.994;-3.936;2023-07-31T14:41:28;13.43;;;5.22;;
74383;SDS011;62824;52.994;-3.936;2023-07-31T14:43:53;116.20;;;50.95;;
74383;SDS011;62824;52.994;-3.936;2023-07-31T14:46:19;8.10;;;3.25;;